Terminal Aerodrome Forecast
Issued by NWS

Home | Current Version | Previous Version | Graphics & Text | Print | Product List | Glossary On
Versions: 1 2 3 4 5 6 7 8 9 10 11 12 13 14 15 16 17 18 19 20 21 22 23 24 25 26 27 28 29 30 31 32 33 34 35 36 37 38 39 40
000
FTUS43 KLOT 241500 AAB
TAFDPA
TAF AMD
KDPA 241600Z 2416/2512 27020G30KT 5SM -SN OVC010
     FM241645 25024G33KT 2SM -SN SCT007 OVC015
     FM242100 25023G31KT 5SM -SN SCT007 OVC015
     FM250100 25017G27KT P6SM -SHSN SCT010 OVC020
     FM250600 26013KT P6SM BKN025 OVC035=

USA.gov is the U.S. government's official web portal to all federal, state and local government web resources and services.